Time;durP1;ratioP1;P1;durP2;ratioP2;P2;SDS_P1;SDS_P2;PMS_P1;PMS_P2;Temp;Humidity;BMP_temperature;BMP_pressure;BME280_temperature;BME280_humidity;BME280_pressure;Samples;Min_cycle;Max_cycle;Signal;HPM_P1;HPM_P2
2021/07/24 00:01:03;;;;;;;15.83;5.00;;;;;;;19.32;75.05;100783.86;1715373;82;21130;-60
2021/07/24 00:03:30;;;;;;;23.57;4.78;;;;;;;19.30;75.35;100792.62;1689396;83;21582;-61
2021/07/24 00:05:57;;;;;;;17.67;5.33;;;;;;;19.30;75.67;100791.73;1678973;83;20973;-61
2021/07/24 00:08:24;;;;;;;13.70;5.05;;;;;;;19.29;75.91;100787.28;1662652;84;21102;-60
2021/07/24 00:10:52;;;;;;;11.25;4.70;;;;;;;19.30;76.30;100798.05;1683049;83;21487;-58
2021/07/24 00:13:21;;;;;;;13.03;5.10;;;;;;;19.29;76.58;100794.08;1687398;83;21068;-59
2021/07/24 00:15:48;;;;;;;22.42;5.30;;;;;;;19.28;76.72;100790.50;1682955;83;21105;-59
2021/07/24 00:18:18;;;;;;;13.00;5.08;;;;;;;19.26;76.88;100797.02;1725239;81;21015;-60
2021/07/24 00:20:44;;;;;;;12.78;4.95;;;;;;;19.21;77.37;100805.99;1730293;81;21071;-60
2021/07/24 00:23:12;;;;;;;20.43;5.25;;;;;;;19.18;77.87;100802.98;1732913;81;21518;-61
2021/07/24 00:25:42;;;;;;;15.40;4.95;;;;;;;19.18;78.04;100804.34;1734159;81;21678;-61
2021/07/24 00:28:10;;;;;;;21.10;5.33;;;;;;;19.17;78.25;100806.21;1679175;83;20972;-59
2021/07/24 00:30:39;;;;;;;16.10;5.03;;;;;;;19.15;78.49;100805.45;1676901;83;21446;-60
2021/07/24 00:33:11;;;;;;;16.65;5.17;;;;;;;19.09;78.92;100805.86;1682269;83;21710;-60
2021/07/24 00:35:38;;;;;;;24.12;5.60;;;;;;;19.03;79.44;100798.15;1674576;83;21104;-59
2021/07/24 00:38:07;;;;;;;17.98;5.40;;;;;;;19.02;79.65;100803.20;1679072;83;21663;-60
2021/07/24 00:40:36;;;;;;;20.08;5.00;;;;;;;19.00;79.66;100801.94;1678466;83;21058;-59
2021/07/24 00:43:04;;;;;;;16.95;5.17;;;;;;;19.00;80.11;100799.73;1685175;83;20992;-59
2021/07/24 00:45:36;;;;;;;11.65;5.15;;;;;;;19.00;80.22;100807.38;1681234;83;20960;-59
2021/07/24 00:48:04;;;;;;;19.55;5.78;;;;;;;19.01;80.43;100801.47;1683319;83;20980;-59
2021/07/24 00:50:33;;;;;;;24.85;5.12;;;;;;;19.02;80.61;100799.13;1688450;83;21774;-61
2021/07/24 00:53:10;;;;;;;14.98;5.28;;;;;;;19.01;81.04;100800.11;1689618;83;20899;-60
2021/07/24 00:55:29;;;;;;;11.15;5.00;;;;;;;18.99;81.28;100795.27;1676614;83;21049;-59
2021/07/24 00:57:56;;;;;;;18.55;5.67;;;;;;;18.97;81.57;100796.70;1679234;83;21081;-59
2021/07/24 01:00:23;;;;;;;21.45;5.17;;;;;;;18.95;81.81;100795.94;1675569;83;21131;-60
2021/07/24 01:02:51;;;;;;;17.05;5.42;;;;;;;18.95;81.92;100795.94;1676317;83;21724;-59
2021/07/24 01:05:18;;;;;;;14.43;4.47;;;;;;;18.96;81.97;100795.46;1670800;83;21123;-60
2021/07/24 01:07:45;;;;;;;19.85;5.55;;;;;;;18.97;82.03;100793.13;1679676;83;21032;-60
2021/07/24 01:10:14;;;;;;;19.55;5.33;;;;;;;18.99;82.05;100791.20;1675133;83;22314;-62
2021/07/24 01:12:43;;;;;;;14.83;5.33;;;;;;;18.98;81.96;100784.00;1656601;84;21110;-59
2021/07/24 01:15:12;;;;;;;16.82;5.60;;;;;;;18.96;82.05;100785.95;1671716;83;21624;-59
2021/07/24 01:17:41;;;;;;;10.03;4.90;;;;;;;18.93;82.68;100787.53;1674098;83;21083;-59
2021/07/24 01:20:10;;;;;;;13.48;5.95;;;;;;;18.90;83.08;100782.70;1685001;83;21409;-62
2021/07/24 01:22:38;;;;;;;9.98;5.40;;;;;;;18.92;83.39;100781.72;1649073;83;21942;-60
2021/07/24 01:25:10;;;;;;;13.00;5.72;;;;;;;18.94;83.62;100786.05;1675420;83;20930;-60
2021/07/24 01:27:44;;;;;;;18.95;5.87;;;;;;;18.96;84.02;100788.16;1656282;84;20973;-61
2021/07/24 01:30:12;;;;;;;15.57;5.23;;;;;;;18.95;84.49;100790.50;1708148;82;21429;-61
2021/07/24 01:32:39;;;;;;;13.58;5.90;;;;;;;18.93;85.10;100782.09;1718456;82;22241;-60
2021/07/24 01:35:09;;;;;;;17.02;5.75;;;;;;;18.92;85.86;100779.00;1712635;82;20987;-61
2021/07/24 01:37:37;;;;;;;14.07;6.12;;;;;;;18.92;86.39;100776.28;1714624;82;21814;-60
2021/07/24 01:40:06;;;;;;;18.40;6.00;;;;;;;18.91;86.56;100778.12;1724253;82;21748;-61
2021/07/24 01:42:33;;;;;;;18.87;6.28;;;;;;;18.92;86.87;100784.44;1716537;82;21391;-61
2021/07/24 01:45:01;;;;;;;16.37;5.30;;;;;;;18.88;86.99;100773.75;1714935;82;21413;-59
2021/07/24 01:47:29;;;;;;;19.82;5.67;;;;;;;18.86;87.20;100778.42;1718668;82;22127;-62
2021/07/24 01:52:46;;;;;;;12.55;5.80;;;;;;;18.81;87.59;100779.24;1720528;82;21032;-60
2021/07/24 01:55:16;;;;;;;14.07;6.33;;;;;;;18.76;87.68;100778.70;1716399;82;20940;-61
2021/07/24 01:57:47;;;;;;;19.30;6.05;;;;;;;18.72;88.01;100781.25;1718605;81;21587;-60
2021/07/24 02:00:16;;;;;;;15.58;5.58;;;;;;;18.64;88.32;100784.96;1728847;80;20919;-60
2021/07/24 02:02:50;;;;;;;16.50;5.90;;;;;;;18.58;88.67;100783.06;1743091;80;20959;-59
2021/07/24 02:05:41;;;;;;;18.07;5.95;;;;;;;18.51;89.07;100783.11;1741828;80;21070;-59
2021/07/24 02:08:09;;;;;;;11.73;5.12;;;;;;;18.44;89.55;100778.58;1751397;79;20927;-60
2021/07/24 02:10:42;;;;;;;13.62;5.67;;;;;;;18.39;89.73;100783.45;1748520;80;21499;-59
2021/07/24 02:13:13;;;;;;;11.95;5.53;;;;;;;18.38;89.78;100783.55;1753702;79;21039;-59
2021/07/24 02:15:42;;;;;;;17.15;6.45;;;;;;;18.37;89.93;100778.63;1755161;79;20911;-60
2021/07/24 02:18:14;;;;;;;13.18;5.80;;;;;;;18.36;89.84;100785.50;1748700;80;21116;-60
2021/07/24 02:20:41;;;;;;;15.78;5.70;;;;;;;18.33;90.26;100784.73;1753665;80;20895;-60
2021/07/24 02:23:09;;;;;;;15.08;6.03;;;;;;;18.31;91.11;100788.04;1719734;81;21227;-60
2021/07/24 02:25:37;;;;;;;17.55;5.80;;;;;;;18.29;91.45;100780.48;1739879;80;21003;-59
2021/07/24 02:28:05;;;;;;;13.50;6.35;;;;;;;18.25;91.55;100790.28;1742273;80;21000;-60
2021/07/24 02:30:32;;;;;;;19.40;5.65;;;;;;;18.23;91.99;100782.73;1741110;80;21690;-60
2021/07/24 02:32:59;;;;;;;12.65;5.70;;;;;;;18.23;92.10;100786.30;1739281;80;21038;-60
2021/07/24 02:35:26;;;;;;;16.48;6.12;;;;;;;18.23;92.12;100790.38;1754695;79;21108;-59
2021/07/24 02:37:55;;;;;;;14.75;6.22;;;;;;;18.23;92.34;100788.16;1744151;80;21397;-59
2021/07/24 02:40:24;;;;;;;12.18;6.05;;;;;;;18.22;92.19;100789.99;1736970;80;21090;-61
2021/07/24 02:42:54;;;;;;;18.15;6.08;;;;;;;18.21;91.97;100789.61;1754640;79;21104;-61
2021/07/24 02:45:24;;;;;;;20.20;5.20;;;;;;;18.22;91.66;100795.42;1739410;81;20904;-59
2021/07/24 02:50:33;;;;;;;14.65;5.83;;;;;;;18.14;91.34;100784.22;1756860;79;20939;-60
2021/07/24 02:53:00;;;;;;;22.42;6.05;;;;;;;18.14;91.21;100786.46;1741022;81;20903;-60
2021/07/24 02:55:29;;;;;;;21.50;5.80;;;;;;;18.16;91.15;100787.70;1754339;79;21810;-61
2021/07/24 02:57:57;;;;;;;16.35;6.03;;;;;;;18.20;91.38;100791.94;1736973;80;21078;-61
2021/07/24 03:00:25;;;;;;;15.03;6.30;;;;;;;18.23;91.48;100795.80;1738154;79;21060;-60
2021/07/24 03:02:51;;;;;;;24.67;6.05;;;;;;;18.24;91.80;100797.58;1726387;81;21169;-60
2021/07/24 03:05:18;;;;;;;17.90;6.20;;;;;;;18.23;91.86;100793.09;1728039;81;20987;-60
2021/07/24 03:07:48;;;;;;;15.70;6.42;;;;;;;18.21;91.90;100793.68;1729587;81;21146;-60
2021/07/24 03:10:17;;;;;;;23.25;6.55;;;;;;;18.21;92.37;100796.39;1725428;81;20999;-61
2021/07/24 03:12:44;;;;;;;12.07;5.58;;;;;;;18.25;92.46;100791.17;1724179;81;21010;-60
2021/07/24 03:15:12;;;;;;;21.87;6.08;;;;;;;18.29;92.06;100792.70;1726035;81;21054;-60
2021/07/24 03:17:38;;;;;;;19.25;6.90;;;;;;;18.35;91.87;100795.50;1730643;81;21145;-60
2021/07/24 03:20:07;;;;;;;18.98;6.42;;;;;;;18.41;91.32;100792.83;1731600;81;21583;-60
2021/07/24 03:22:35;;;;;;;20.23;6.97;;;;;;;18.49;91.04;100795.03;1730365;81;20884;-59
2021/07/24 03:25:02;;;;;;;14.73;6.10;;;;;;;18.56;90.67;100795.88;1737000;81;21240;-59
2021/07/24 03:27:32;;;;;;;16.50;6.30;;;;;;;18.65;90.11;100795.73;1732544;81;20922;-59
2021/07/24 03:30:00;;;;;;;15.15;6.05;;;;;;;18.74;89.68;100803.23;1749947;81;20922;-59
2021/07/24 03:32:27;;;;;;;19.25;6.25;;;;;;;18.80;88.54;100800.59;1708067;81;21454;-59
2021/07/24 03:34:55;;;;;;;17.85;6.42;;;;;;;18.84;88.20;100799.39;1738254;81;21587;-58
2021/07/24 03:37:23;;;;;;;14.55;6.55;;;;;;;18.92;88.00;100800.73;1726249;81;21043;-59
2021/07/24 03:39:50;;;;;;;16.37;6.60;;;;;;;19.00;87.81;100802.45;1668121;84;21048;-59
2021/07/24 03:42:17;;;;;;;19.40;5.85;;;;;;;19.06;87.35;100799.80;1654883;86;21047;-60
2021/07/24 03:44:44;;;;;;;22.35;6.05;;;;;;;19.15;86.35;100804.09;1728462;81;21122;-60
2021/07/24 03:47:11;;;;;;;12.85;5.90;;;;;;;19.26;85.86;100799.73;1728705;81;21548;-60
2021/07/24 03:49:39;;;;;;;15.38;5.78;;;;;;;19.35;85.25;100800.45;1727666;81;21050;-60
2021/07/24 03:52:07;;;;;;;14.68;5.62;;;;;;;19.43;84.48;100796.69;1728351;81;21078;-60
2021/07/24 03:54:34;;;;;;;17.82;5.45;;;;;;;19.50;84.45;100797.59;1725531;81;21485;-60
2021/07/24 03:57:01;;;;;;;12.15;4.97;;;;;;;19.57;83.82;100793.47;1725293;81;21132;-60
2021/07/24 03:59:28;;;;;;;13.83;5.12;;;;;;;19.66;83.40;100796.87;1732962;81;21107;-60
2021/07/24 04:01:57;;;;;;;13.80;5.10;;;;;;;19.73;81.92;100792.70;1695513;82;21002;-59
2021/07/24 04:04:24;;;;;;;14.87;4.65;;;;;;;19.83;81.92;100794.77;1695258;83;21527;-60
2021/07/24 04:06:53;;;;;;;14.93;5.22;;;;;;;19.94;80.93;100794.01;1688538;83;21006;-59
2021/07/24 04:09:20;;;;;;;27.27;5.50;;;;;;;20.06;80.43;100792.23;1691234;82;21975;-60
2021/07/24 04:11:50;;;;;;;15.65;5.60;;;;;;;20.17;79.72;100799.97;1696135;83;20876;-60
2021/07/24 04:14:17;;;;;;;14.35;5.17;;;;;;;20.28;79.58;100799.16;1696044;83;21100;-60
2021/07/24 04:16:44;;;;;;;12.55;5.33;;;;;;;20.41;78.88;100801.81;1701199;83;21219;-60
2021/07/24 04:19:11;;;;;;;22.75;5.72;;;;;;;20.53;77.83;100794.56;1691046;83;21148;-59
2021/07/24 04:21:38;;;;;;;13.03;5.85;;;;;;;20.63;77.47;100799.28;1696785;83;21211;-59
2021/07/24 04:24:05;;;;;;;12.85;6.00;;;;;;;20.72;77.17;100797.23;1692722;83;21915;-60
2021/07/24 04:26:32;;;;;;;14.28;5.55;;;;;;;20.82;76.00;100802.36;1688280;83;21074;-60
2021/07/24 04:28:59;;;;;;;12.05;4.53;;;;;;;20.93;75.40;100800.67;1693267;83;21421;-60
2021/07/24 04:31:27;;;;;;;17.45;6.30;;;;;;;21.01;73.29;100807.27;1698991;82;21061;-60
2021/07/24 04:33:53;;;;;;;20.10;5.25;;;;;;;21.14;73.91;100811.73;1691708;83;21884;-60
2021/07/24 04:36:22;;;;;;;26.40;5.60;;;;;;;21.28;73.67;100812.87;1692948;83;21157;-59
2021/07/24 04:38:49;;;;;;;18.48;5.60;;;;;;;21.43;73.17;100810.77;1689519;83;21040;-59
2021/07/24 04:41:21;;;;;;;17.40;5.40;;;;;;;21.54;72.09;100804.94;1686314;83;21113;-59
2021/07/24 04:43:48;;;;;;;25.35;5.37;;;;;;;21.66;71.67;100806.71;1688918;83;21081;-60
2021/07/24 04:46:16;;;;;;;18.23;5.58;;;;;;;21.80;71.23;100812.92;1699195;83;21130;-60
2021/07/24 04:48:43;;;;;;;16.70;4.97;;;;;;;21.89;70.53;100808.94;1696503;82;21054;-60
2021/07/24 04:51:10;;;;;;;22.52;5.40;;;;;;;21.96;69.95;100809.27;1689105;83;21578;-60
2021/07/24 04:53:37;;;;;;;15.50;5.50;;;;;;;22.07;69.95;100807.02;1683861;83;20942;-59
2021/07/24 04:56:06;;;;;;;19.50;5.25;;;;;;;22.18;69.59;100808.38;1699397;83;21101;-60
2021/07/24 04:58:34;;;;;;;25.72;5.33;;;;;;;22.30;69.30;100807.84;1696331;83;21417;-60
2021/07/24 05:01:01;;;;;;;21.77;4.90;;;;;;;22.44;68.94;100810.77;1659436;84;20993;-60
2021/07/24 05:03:28;;;;;;;19.80;4.90;;;;;;;22.58;68.64;100813.72;1658211;84;21107;-60
2021/07/24 05:05:55;;;;;;;18.10;4.85;;;;;;;22.72;67.84;100812.53;1689906;83;21188;-61
2021/07/24 05:08:23;;;;;;;24.23;5.00;;;;;;;22.84;67.45;100816.08;1689815;83;21069;-59
2021/07/24 05:10:51;;;;;;;19.35;5.40;;;;;;;22.98;67.67;100822.23;1697281;83;21827;-59
2021/07/24 05:13:18;;;;;;;22.13;5.30;;;;;;;23.15;67.53;100831.69;1690516;83;21120;-59
2021/07/24 05:15:45;;;;;;;19.00;5.90;;;;;;;23.31;66.97;100820.28;1686068;83;21078;-60
2021/07/24 05:18:12;;;;;;;29.40;6.62;;;;;;;23.45;66.16;100821.83;1694133;83;22244;-60
2021/07/24 05:20:42;;;;;;;57.55;6.72;;;;;;;23.58;65.56;100817.49;1690539;83;21531;-59
2021/07/24 05:23:10;;;;;;;35.35;5.87;;;;;;;23.68;65.16;100814.80;1688492;83;21854;-61
2021/07/24 05:25:38;;;;;;;32.20;5.70;;;;;;;23.80;64.48;100814.19;1688123;83;21373;-60
2021/07/24 05:28:07;;;;;;;31.97;5.90;;;;;;;23.92;63.78;100821.27;1693127;83;20951;-60
2021/07/24 05:30:34;;;;;;;36.28;6.15;;;;;;;24.03;63.13;100828.05;1689288;83;21399;-60
2021/07/24 05:33:01;;;;;;;33.83;5.92;;;;;;;24.14;63.18;100830.30;1688469;83;21039;-60
2021/07/24 05:35:28;;;;;;;37.30;5.20;;;;;;;24.29;62.76;100822.05;1685520;83;21160;-60
2021/07/24 05:37:55;;;;;;;35.63;6.40;;;;;;;24.43;62.19;100824.02;1687568;83;21105;-60
2021/07/24 05:40:22;;;;;;;27.48;5.58;;;;;;;24.57;61.90;100826.31;1682544;83;21101;-60
2021/07/24 05:42:50;;;;;;;25.23;5.90;;;;;;;24.73;61.69;100826.25;1687886;83;22200;-61
2021/07/24 05:45:16;;;;;;;38.02;6.80;;;;;;;24.84;60.81;100831.59;1686077;83;21036;-60
2021/07/24 05:47:44;;;;;;;44.08;7.15;;;;;;;24.97;60.39;100834.56;1689430;83;21164;-60
2021/07/24 05:50:11;;;;;;;41.37;6.85;;;;;;;25.10;60.20;100833.76;1690620;83;20977;-60
2021/07/24 05:52:38;;;;;;;57.70;7.60;;;;;;;25.23;59.32;100833.94;1696373;83;20931;-59
2021/07/24 05:55:06;;;;;;;37.80;6.80;;;;;;;25.30;59.08;100837.31;1691242;83;20931;-60
2021/07/24 05:57:35;;;;;;;37.67;6.58;;;;;;;25.41;59.25;100836.27;1691876;83;21404;-59
2021/07/24 06:00:02;;;;;;;33.85;6.20;;;;;;;25.50;58.85;100836.41;1673188;83;21463;-59
2021/07/24 06:02:28;;;;;;;22.90;5.72;;;;;;;25.56;58.80;100837.20;1727337;80;20927;-59
2021/07/24 06:04:59;;;;;;;29.82;6.03;;;;;;;25.66;58.91;100840.77;1744569;80;20885;-59
2021/07/24 06:07:26;;;;;;;30.17;5.42;;;;;;;25.79;58.93;100828.06;1741195;80;21398;-59
2021/07/24 06:09:53;;;;;;;32.17;6.08;;;;;;;25.91;57.71;100839.70;1740988;81;20949;-59
2021/07/24 06:12:20;;;;;;;23.95;5.62;;;;;;;25.95;57.53;100842.50;1744056;81;21096;-59
2021/07/24 06:14:48;;;;;;;18.02;5.47;;;;;;;26.01;57.75;100836.91;1743079;80;20919;-59
2021/07/24 06:17:16;;;;;;;30.85;5.30;;;;;;;26.11;58.00;100838.23;1739377;80;20991;-59
2021/07/24 06:19:44;;;;;;;19.92;4.37;;;;;;;26.21;57.03;100843.70;1737704;80;21055;-59
2021/07/24 06:22:12;;;;;;;12.78;4.10;;;;;;;26.22;53.70;100844.93;1740008;80;21043;-59
2021/07/24 06:24:39;;;;;;;12.98;3.60;;;;;;;26.21;52.54;100851.45;1743117;80;21922;-60
2021/07/24 06:27:06;;;;;;;20.50;4.10;;;;;;;26.21;51.22;100858.31;1743841;80;21341;-60
2021/07/24 06:29:33;;;;;;;39.35;4.78;;;;;;;26.14;51.88;100849.78;1741827;80;20895;-59
2021/07/24 06:32:00;;;;;;;28.92;4.90;;;;;;;26.15;52.23;100845.14;1758543;80;21044;-60
2021/07/24 06:34:27;;;;;;;23.98;4.37;;;;;;;26.18;52.11;100842.11;1739857;81;21162;-59
2021/07/24 06:36:54;;;;;;;19.32;4.50;;;;;;;26.26;51.39;100850.95;1742233;80;21112;-60
2021/07/24 06:39:23;;;;;;;18.98;3.70;;;;;;;26.33;50.24;100849.84;1710434;82;21459;-60
2021/07/24 06:41:51;;;;;;;25.37;3.70;;;;;;;26.41;49.38;100859.03;1738563;80;21062;-60
2021/07/24 06:44:18;;;;;;;16.62;3.60;;;;;;;26.53;48.81;100854.70;1737719;80;21060;-60
2021/07/24 06:46:45;;;;;;;9.58;3.75;;;;;;;26.63;48.12;100851.35;1741777;80;21068;-59
2021/07/24 06:49:12;;;;;;;22.22;4.25;;;;;;;26.72;47.42;100864.14;1744461;80;21213;-59
2021/07/24 06:51:39;;;;;;;11.73;3.47;;;;;;;26.83;46.99;100865.79;1742311;80;20927;-60
2021/07/24 06:54:06;;;;;;;15.20;3.20;;;;;;;26.89;48.26;100862.95;1744268;80;20979;-59
2021/07/24 06:56:33;;;;;;;11.75;2.85;;;;;;;26.97;48.90;100869.05;1745860;80;21409;-60
2021/07/24 06:59:00;;;;;;;9.18;3.00;;;;;;;27.10;48.42;100873.64;1738753;81;20908;-60
2021/07/24 07:01:29;;;;;;;4.30;2.40;;;;;;;27.22;47.48;100870.12;1745120;79;21158;-59
2021/07/24 07:03:56;;;;;;;4.92;2.40;;;;;;;27.32;47.49;100870.02;1720900;81;21047;-59
2021/07/24 07:06:23;;;;;;;12.10;2.33;;;;;;;27.45;47.08;100870.44;1726163;81;22029;-58
2021/07/24 07:08:50;;;;;;;9.83;2.60;;;;;;;27.59;46.71;100877.78;1706988;81;21472;-59
2021/07/24 07:11:17;;;;;;;7.55;2.20;;;;;;;27.66;46.02;100876.09;1729443;81;21005;-60
2021/07/24 07:13:45;;;;;;;6.42;2.62;;;;;;;27.78;45.74;100882.72;1730618;81;21895;-60
2021/07/24 07:16:13;;;;;;;3.87;2.12;;;;;;;27.85;45.19;100881.90;1729332;81;20897;-60
2021/07/24 07:18:40;;;;;;;5.35;2.22;;;;;;;27.90;44.60;100877.78;1740588;81;20943;-59
2021/07/24 07:21:08;;;;;;;6.60;2.52;;;;;;;27.93;44.96;100872.78;1728591;81;20912;-61
2021/07/24 07:23:36;;;;;;;11.65;2.30;;;;;;;27.97;45.05;100882.47;1714119;81;21441;-60
2021/07/24 07:26:04;;;;;;;4.35;2.27;;;;;;;28.03;44.05;100884.55;1727863;81;20917;-59
2021/07/24 07:28:31;;;;;;;4.80;1.90;;;;;;;28.14;44.06;100877.00;1732670;81;21373;-59
2021/07/24 07:30:58;;;;;;;8.58;2.27;;;;;;;28.20;43.78;100879.64;1724418;81;21408;-61
2021/07/24 07:33:25;;;;;;;3.85;1.98;;;;;;;28.23;43.32;100877.92;1733802;81;20912;-61
2021/07/24 07:35:52;;;;;;;5.33;1.85;;;;;;;28.28;42.62;100875.02;1725992;81;20916;-59
2021/07/24 07:38:19;;;;;;;2.80;1.92;;;;;;;28.38;41.89;100874.00;1729075;81;21369;-59
2021/07/24 07:40:46;;;;;;;6.42;1.87;;;;;;;28.36;41.26;100871.94;1728741;81;20904;-59
2021/07/24 07:43:13;;;;;;;6.90;1.55;;;;;;;28.29;40.40;100872.61;1729202;81;20916;-60
2021/07/24 07:45:40;;;;;;;3.50;1.98;;;;;;;28.24;40.28;100879.16;1729227;81;20987;-60
2021/07/24 07:48:08;;;;;;;6.17;2.10;;;;;;;28.21;41.01;100882.25;1736744;81;20916;-59
2021/07/24 07:50:36;;;;;;;3.22;1.65;;;;;;;28.23;40.96;100876.05;1729504;81;21092;-58
2021/07/24 07:53:08;;;;;;;8.38;2.10;;;;;;;28.31;40.21;100870.55;1734168;81;21448;-61
2021/07/24 07:55:36;;;;;;;7.60;1.65;;;;;;;28.39;40.29;100873.85;1728621;81;20975;-59
2021/07/24 07:58:11;;;;;;;5.87;1.82;;;;;;;28.44;40.79;100875.58;1734944;81;21011;-59
2021/07/24 08:00:38;;;;;;;5.67;2.15;;;;;;;28.52;40.24;100879.41;1709448;81;20929;-59
2021/07/24 08:03:05;;;;;;;5.58;1.60;;;;;;;28.55;40.27;100877.16;1704015;81;21065;-59
2021/07/24 08:05:32;;;;;;;2.92;1.85;;;;;;;28.56;38.87;100873.36;1692027;83;20979;-59
2021/07/24 08:07:59;;;;;;;4.37;1.60;;;;;;;28.60;38.71;100871.98;1691333;83;20916;-59
2021/07/24 08:10:26;;;;;;;6.30;1.60;;;;;;;28.64;38.21;100882.70;1690327;83;20901;-59
2021/07/24 08:12:53;;;;;;;3.70;2.10;;;;;;;28.62;39.38;100872.33;1694902;83;21020;-60
2021/07/24 08:15:22;;;;;;;5.10;1.92;;;;;;;28.62;40.24;100877.34;1695664;83;21030;-59
2021/07/24 08:17:49;;;;;;;2.35;2.05;;;;;;;28.62;39.71;100885.61;1689489;83;21415;-60
2021/07/24 08:20:16;;;;;;;7.85;2.00;;;;;;;28.54;40.09;100872.67;1696902;83;21062;-60
2021/07/24 08:22:43;;;;;;;4.00;1.72;;;;;;;28.45;39.99;100877.84;1687987;83;21737;-60
2021/07/24 08:25:11;;;;;;;3.80;1.52;;;;;;;28.38;39.18;100890.55;1688584;83;21419;-60
2021/07/24 08:27:38;;;;;;;6.30;1.80;;;;;;;28.38;38.73;100885.03;1687184;83;21160;-59
2021/07/24 08:30:06;;;;;;;3.02;1.87;;;;;;;28.41;39.93;100889.70;1690110;83;20929;-60
2021/07/24 08:32:33;;;;;;;6.47;1.75;;;;;;;28.48;38.64;100885.77;1696993;83;20945;-60
2021/07/24 08:35:01;;;;;;;5.30;1.92;;;;;;;28.53;39.05;100882.52;1689582;83;20885;-60
2021/07/24 08:37:28;;;;;;;3.02;1.72;;;;;;;28.62;39.23;100890.25;1687768;83;20912;-60
2021/07/24 08:39:55;;;;;;;9.00;2.12;;;;;;;28.60;39.85;100891.82;1688663;83;21073;-60
2021/07/24 08:42:42;;;;;;;6.17;2.00;;;;;;;28.56;40.27;100891.29;1689822;83;21374;-60
2021/07/24 08:45:10;;;;;;;5.22;2.02;;;;;;;28.56;39.82;100888.53;1688686;83;20939;-59
2021/07/24 08:47:39;;;;;;;3.27;1.62;;;;;;;28.46;41.38;100883.70;1687311;83;21397;-60
2021/07/24 08:50:08;;;;;;;4.67;1.95;;;;;;;28.46;39.89;100891.97;1688526;83;21383;-59
2021/07/24 08:52:35;;;;;;;7.95;1.92;;;;;;;28.44;39.54;100883.84;1683147;83;21155;-59
2021/07/24 08:55:07;;;;;;;9.43;2.15;;;;;;;28.45;40.04;100881.97;1689533;83;20873;-59
2021/07/24 08:57:46;;;;;;;7.92;1.70;;;;;;;28.53;41.13;100884.73;1685842;83;20869;-60
2021/07/24 09:00:15;;;;;;;8.93;1.52;;;;;;;28.58;38.90;100882.33;1692761;83;20909;-59
2021/07/24 09:02:45;;;;;;;5.97;1.55;;;;;;;28.54;39.49;100878.19;1702471;81;21489;-59
2021/07/24 09:05:14;;;;;;;6.10;1.72;;;;;;;28.55;39.37;100877.16;1731856;81;21065;-59
2021/07/24 09:07:46;;;;;;;5.15;1.42;;;;;;;28.59;39.13;100881.29;1733795;81;21502;-59
2021/07/24 09:10:14;;;;;;;4.87;1.70;;;;;;;28.58;38.79;100890.59;1731648;81;21521;-59
2021/07/24 09:12:43;;;;;;;3.55;1.62;;;;;;;28.58;38.29;100892.51;1729384;81;21283;-60
2021/07/24 09:15:12;;;;;;;8.25;1.52;;;;;;;28.56;37.90;100892.66;1731691;81;21388;-59
2021/07/24 09:17:39;;;;;;;5.17;1.70;;;;;;;28.57;38.00;100885.27;1737160;81;21096;-60
2021/07/24 09:20:07;;;;;;;2.55;1.67;;;;;;;28.63;38.76;100890.09;1726786;81;21513;-58
2021/07/24 09:22:38;;;;;;;7.85;2.05;;;;;;;28.71;38.69;100894.77;1736162;81;21938;-59
2021/07/24 09:25:17;;;;;;;3.90;1.60;;;;;;;28.78;38.08;100896.34;1739707;81;21520;-60
2021/07/24 09:27:51;;;;;;;5.80;2.00;;;;;;;28.83;37.98;100887.91;1728623;81;21414;-58
2021/07/24 09:30:29;;;;;;;3.85;1.70;;;;;;;28.86;36.82;100887.59;1734268;81;21449;-59
2021/07/24 09:33:12;;;;;;;4.90;2.02;;;;;;;28.83;37.57;100888.44;1731094;81;20896;-59
2021/07/24 09:35:47;;;;;;;5.90;1.70;;;;;;;28.80;39.39;100893.77;1731757;81;20936;-59
2021/07/24 09:38:15;;;;;;;;;;;;;;;28.79;39.65;100892.05;1734984;81;20908;-59
2021/07/24 09:40:44;;;;;;;4.58;1.47;;;;;;;28.78;38.46;100891.67;1725448;81;20415;-59
2021/07/24 09:43:36;;;;;;;2.80;1.37;;;;;;;28.77;38.29;100884.95;1730520;81;21150;-59
2021/07/24 09:46:22;;;;;;;3.15;1.80;;;;;;;28.75;38.98;100887.87;1728355;81;21556;-59
2021/07/24 09:48:52;;;;;;;7.50;2.98;;;;;;;28.76;39.25;100879.94;1735120;81;20876;-59
2021/07/24 09:51:36;;;;;;;6.15;1.75;;;;;;;28.78;39.52;100880.63;1731486;81;20912;-59
2021/07/24 09:54:06;;;;;;;4.67;1.70;;;;;;;28.83;38.67;100881.54;1729022;81;21391;-59
2021/07/24 09:56:42;;;;;;;5.97;1.95;;;;;;;28.83;37.23;100881.01;1731730;81;21521;-59
2021/07/24 09:59:30;;;;;;;7.50;1.67;;;;;;;28.86;38.58;100882.07;1728926;81;20935;-59
2021/07/24 10:02:05;;;;;;;3.40;1.60;;;;;;;28.85;40.29;100872.07;1725642;81;20973;-59
2021/07/24 10:04:35;;;;;;;3.17;1.62;;;;;;;28.84;38.85;100873.08;1727797;81;20868;-59
2021/07/24 10:07:07;;;;;;;4.33;1.77;;;;;;;28.80;38.84;100879.12;1735251;81;21374;-59
2021/07/24 10:09:41;;;;;;;4.03;1.60;;;;;;;28.74;38.72;100872.36;1729771;81;21541;-58
2021/07/24 10:12:15;;;;;;;4.50;1.70;;;;;;;28.73;39.12;100883.05;1730086;81;21271;-59
2021/07/24 10:14:39;;;;;;;3.55;1.80;;;;;;;28.71;38.39;100879.60;1725589;81;21006;-58
2021/07/24 10:17:08;;;;;;;1.67;1.47;;;;;;;28.68;38.71;100878.56;1726284;81;21026;-59
2021/07/24 10:19:35;;;;;;;4.60;1.80;;;;;;;28.63;38.78;100874.93;1726839;81;21130;-58
2021/07/24 10:22:04;;;;;;;3.05;1.50;;;;;;;28.65;39.02;100873.39;1728997;81;21172;-59
2021/07/24 10:24:31;;;;;;;3.05;1.32;;;;;;;28.64;38.44;100874.43;1730380;81;21057;-58
2021/07/24 10:27:10;;;;;;;1.70;1.60;;;;;;;28.62;38.02;100877.34;1727130;81;21109;-59
2021/07/24 10:29:41;;;;;;;3.87;1.72;;;;;;;28.58;37.51;100873.20;1732492;81;20896;-58
2021/07/24 10:32:12;;;;;;;2.17;1.42;;;;;;;28.50;36.88;100875.42;1727260;81;21509;-58
2021/07/24 10:34:48;;;;;;;3.30;1.60;;;;;;;28.45;37.05;100876.45;1731320;81;20865;-58
2021/07/24 10:37:39;;;;;;;4.80;1.62;;;;;;;28.40;37.00;100870.56;1712069;82;21288;-60
2021/07/24 10:40:24;;;;;;;3.87;1.47;;;;;;;28.37;39.20;100876.41;1730035;81;20925;-59
2021/07/24 10:42:51;;;;;;;;;;;;;;;28.34;38.15;100883.15;1727666;81;20943;-59
2021/07/24 10:45:45;;;;;;;9.78;1.75;;;;;;;28.28;38.17;100875.02;1735536;81;20385;-59
2021/07/24 10:48:20;;;;;;;5.03;1.80;;;;;;;28.27;38.20;100874.68;1725970;81;21149;-59
2021/07/24 10:51:00;;;;;;;4.30;1.75;;;;;;;28.24;39.56;100874.14;1736655;81;21073;-59
2021/07/24 10:54:05;;;;;;;3.77;1.60;;;;;;;28.19;39.59;100874.66;1734409;81;20942;-59
2021/07/24 10:56:37;;;;;;;7.30;1.60;;;;;;;28.14;38.75;100872.87;1731779;81;20903;-58
2021/07/24 10:59:24;;;;;;;3.50;1.60;;;;;;;28.05;39.38;100876.63;1738993;81;21521;-59
2021/07/24 11:01:56;;;;;;;5.15;1.70;;;;;;;27.98;38.97;100875.93;1728759;81;21093;-61
2021/07/24 11:04:41;;;;;;;4.30;1.40;;;;;;;27.93;38.87;100874.16;1729772;80;20955;-59
2021/07/24 11:07:25;;;;;;;2.15;1.60;;;;;;;27.92;40.19;100875.19;1679724;84;22911;-59
2021/07/24 11:10:00;;;;;;;3.08;1.50;;;;;;;27.88;38.85;100872.42;1678624;83;21307;-59
2021/07/24 11:12:39;;;;;;;2.67;1.42;;;;;;;27.84;39.66;100875.16;1683823;83;21367;-61
2021/07/24 11:17:45;;;;;;;3.83;1.65;;;;;;;27.84;40.14;100873.25;1683177;83;20925;-59
2021/07/24 11:20:20;;;;;;;4.28;2.10;;;;;;;27.85;39.32;100875.52;1681625;83;21005;-59
2021/07/24 11:23:03;;;;;;;2.67;1.70;;;;;;;27.80;38.78;100873.24;1681526;83;21576;-59
2021/07/24 11:25:33;;;;;;;2.37;1.70;;;;;;;27.79;39.52;100877.02;1679082;83;21018;-59
2021/07/24 11:28:01;;;;;;;3.35;1.70;;;;;;;27.74;39.92;100873.41;1687016;83;21827;-59
2021/07/24 11:30:27;;;;;;;3.33;1.57;;;;;;;27.74;38.94;100866.52;1680278;83;21466;-59
2021/07/24 11:32:56;;;;;;;2.12;1.70;;;;;;;27.71;38.62;100865.45;1682837;83;20992;-60
2021/07/24 11:35:30;;;;;;;3.20;1.60;;;;;;;27.71;38.52;100866.83;1660473;84;21045;-63
2021/07/24 11:37:58;;;;;;;2.87;1.60;;;;;;;27.74;38.51;100866.52;1677539;83;21638;-60
2021/07/24 11:40:28;;;;;;;5.45;1.62;;;;;;;27.76;38.69;100860.83;1678896;83;21954;-61